Chambersburg, Illinois
Current Conditions -  °F | °C
As of 12:15 AM on Tuesday 21 Oct 2014 (Local Time) from KPPQ Reporting Station
Clear Clear  
Wind Chill: 48°   Ceiling: Unl
Heat Index: 50°   Visibility: 10mi
Dew Point: 44°   Wind: 5mph
Humidity: 81%   Direction: 290°WNW
Pressure: 30.03"   Gusts: NA
Location:  39.82°N, 90.66°W
Report Text: KPPQ 210515Z AUTO 29004KT 10SM CLR 10/07 A3003 RMK AO2 T00990067
Loading
Personal Weather Stations






























Interactive Weather Map
Tropical Storm Tracking
New forecast layout! Learn more

10-Day Weather Forecast

Advertisements
Track Severe Weather on mobile